createdAt,value
2022-11-24T00:00:02.098Z,6.8
2022-11-24T00:05:02.180Z,6.83
2022-11-24T00:10:02.195Z,6.83
2022-11-24T00:20:02.036Z,6.88
2022-11-24T00:25:02.216Z,6.88
2022-11-24T00:30:02.014Z,6.96
2022-11-24T00:35:01.959Z,6.96
2022-11-24T00:40:01.947Z,7.04
2022-11-24T00:45:12.946Z,7.07
2022-11-24T00:50:02.131Z,7.23
2022-11-24T00:55:01.298Z,7.26
2022-11-24T01:00:02.524Z,7.23
2022-11-24T01:05:01.258Z,7.15
2022-11-24T01:10:01.670Z,7.15
2022-11-24T01:15:01.720Z,7.14
2022-11-24T01:20:01.354Z,7.12
2022-11-24T01:25:01.967Z,7.14
2022-11-24T01:30:01.943Z,7.09
2022-11-24T01:35:01.319Z,6.94
2022-11-24T01:40:01.470Z,7.02
2022-11-24T01:45:04.551Z,7.02
2022-11-24T01:50:01.702Z,6.99
2022-11-24T01:55:01.472Z,7.09
2022-11-24T02:00:01.379Z,7.02
2022-11-24T02:05:01.382Z,7.01
2022-11-24T02:10:01.685Z,6.88
2022-11-24T02:15:01.901Z,7
2022-11-24T02:20:02.059Z,7.07
2022-11-24T02:25:01.883Z,7.08
2022-11-24T02:30:02.192Z,7.02
2022-11-24T02:35:01.333Z,6.93
2022-11-24T02:40:01.783Z,7.1
2022-11-24T02:45:01.955Z,7.1
2022-11-24T02:50:02.227Z,7.18
2022-11-24T02:55:01.535Z,7.31
2022-11-24T03:00:02.077Z,7.41
2022-11-24T03:05:01.340Z,7.64
2022-11-24T03:10:01.525Z,7.73
2022-11-24T03:15:01.312Z,7.52
2022-11-24T03:20:04.900Z,7.52
2022-11-24T03:25:01.905Z,7.57
2022-11-24T03:30:02.137Z,7.74
2022-11-24T03:35:02.137Z,7.64
2022-11-24T03:40:02.200Z,7.75
2022-11-24T03:45:29.783Z,7.69
2022-11-24T03:50:01.879Z,7.6
2022-11-24T03:55:01.997Z,7.7
2022-11-24T04:00:01.593Z,7.6
2022-11-24T04:05:01.645Z,7.75
2022-11-24T04:10:01.771Z,7.73
2022-11-24T04:15:01.864Z,7.77
2022-11-24T04:20:02.008Z,7.94
2022-11-24T04:25:01.935Z,7.72
2022-11-24T04:30:02.206Z,7.84
2022-11-24T04:35:01.477Z,7.93
2022-11-24T04:40:02.004Z,7.88
2022-11-24T04:45:02.221Z,7.88
2022-11-24T04:50:01.828Z,7.92
2022-11-24T04:55:01.920Z,7.83
2022-11-24T05:00:02.206Z,7.85
2022-11-24T05:05:01.468Z,7.99
2022-11-24T05:10:01.994Z,7.86
2022-11-24T05:15:01.780Z,7.94
2022-11-24T05:20:01.883Z,8.03
2022-11-24T05:25:01.708Z,8.08
2022-11-24T05:30:01.646Z,8.08
2022-11-24T05:35:02.114Z,8.07
2022-11-24T05:40:02.091Z,8.06
2022-11-24T05:45:02.185Z,8.14
2022-11-24T05:50:01.399Z,8.08
2022-11-24T05:55:01.796Z,8.29
2022-11-24T06:00:01.463Z,8.16
2022-11-24T06:05:02.118Z,8.13
2022-11-24T06:10:02.762Z,8.01
2022-11-24T06:15:01.960Z,7.99
2022-11-24T06:20:01.932Z,7.87
2022-11-24T06:25:01.983Z,7.68
2022-11-24T06:30:01.713Z,7.74
2022-11-24T06:35:01.586Z,7.76
2022-11-24T06:40:01.777Z,7.68
2022-11-24T06:45:06.020Z,7.6
2022-11-24T06:50:01.682Z,7.5
2022-11-24T06:55:01.798Z,7.47
2022-11-24T07:00:01.783Z,7.32
2022-11-24T07:05:01.779Z,7.33
2022-11-24T07:10:01.601Z,7.26
2022-11-24T07:15:01.677Z,7.17
2022-11-24T07:20:01.784Z,7.25
2022-11-24T07:25:01.349Z,7.27
2022-11-24T07:30:01.707Z,7.25
2022-11-24T07:35:01.825Z,7.25
2022-11-24T07:40:01.323Z,7.23
2022-11-24T07:45:02.089Z,7.17
2022-11-24T07:50:01.885Z,7.26
2022-11-24T07:55:01.333Z,7.23
2022-11-24T08:00:01.616Z,7.05
2022-11-24T08:05:02.133Z,7.03
2022-11-24T08:10:01.345Z,7.03
2022-11-24T08:15:03.322Z,7.25
2022-11-24T08:20:02.166Z,7.33
2022-11-24T08:25:02.023Z,7.3
2022-11-24T08:30:01.879Z,7.37
2022-11-24T08:35:13.424Z,7.35
2022-11-24T08:40:02.076Z,7.38
2022-11-24T08:45:17.498Z,7.33
2022-11-24T08:50:01.885Z,7.44
2022-11-24T08:55:02.099Z,7.5
2022-11-24T09:00:01.828Z,7.59
2022-11-24T09:05:01.601Z,7.74
2022-11-24T09:10:01.530Z,8
2022-11-24T09:15:01.849Z,8.02
2022-11-24T09:20:01.608Z,8.12
2022-11-24T09:25:01.776Z,8.08
2022-11-24T09:30:01.743Z,8.2
2022-11-24T09:35:01.558Z,8.26
2022-11-24T09:40:01.467Z,8.32
2022-11-24T09:45:01.444Z,8.44
2022-11-24T09:50:02.209Z,8.45
2022-11-24T09:55:01.792Z,8.53
2022-11-24T10:00:01.851Z,8.59
2022-11-24T10:05:01.848Z,8.67
2022-11-24T10:10:02.141Z,8.75
2022-11-24T10:15:01.963Z,8.86
2022-11-24T10:20:01.722Z,8.82
2022-11-24T10:25:01.732Z,8.96
2022-11-24T10:30:01.555Z,9.06
2022-11-24T10:35:01.482Z,9.1
2022-11-24T10:40:01.594Z,9.12
2022-11-24T10:45:02.111Z,8.97
2022-11-24T10:50:01.993Z,8.95
2022-11-24T10:55:01.706Z,9.07
2022-11-24T11:00:01.713Z,9.06
2022-11-24T11:05:01.701Z,9.09
2022-11-24T11:10:01.488Z,9.34
2022-11-24T11:15:01.439Z,9.5
2022-11-24T11:20:02.590Z,9.56
2022-11-24T11:25:02.161Z,9.59
2022-11-24T11:31:16.830Z,9.66
2022-11-24T11:35:01.647Z,9.6
2022-11-24T11:40:01.652Z,9.59
2022-11-24T11:45:01.571Z,9.6
2022-11-24T11:50:01.481Z,9.64
2022-11-24T11:55:01.281Z,9.66
2022-11-24T12:00:02.117Z,9.71
2022-11-24T12:05:01.331Z,9.77
2022-11-24T12:10:01.946Z,9.78
2022-11-24T12:15:07.301Z,9.86
2022-11-24T12:20:01.718Z,9.91
2022-11-24T12:25:01.746Z,9.93
2022-11-24T12:30:01.757Z,9.94
2022-11-24T12:35:01.645Z,9.93
2022-11-24T12:40:01.593Z,10.04
2022-11-24T12:45:01.607Z,10.08
2022-11-24T12:50:01.583Z,10.04
2022-11-24T12:55:01.543Z,10.11
2022-11-24T13:00:01.582Z,10.08
2022-11-24T13:05:01.512Z,10.05
2022-11-24T13:10:01.809Z,10
2022-11-24T13:15:01.676Z,9.95
2022-11-24T13:20:01.417Z,10.04
2022-11-24T13:25:01.416Z,9.94
2022-11-24T13:30:01.718Z,9.93
2022-11-24T13:35:01.935Z,9.85
2022-11-24T13:40:01.854Z,9.77
2022-11-24T13:45:01.372Z,9.89
2022-11-24T13:50:02.110Z,9.98
2022-11-24T13:55:04.025Z,9.94
2022-11-24T14:00:01.402Z,9.91
2022-11-24T14:05:01.831Z,9.92
2022-11-24T14:10:01.723Z,9.86
2022-11-24T14:15:01.334Z,9.74
2022-11-24T14:20:01.764Z,9.67
2022-11-24T14:25:02.001Z,9.57
2022-11-24T14:30:01.734Z,9.48
2022-11-24T14:35:01.874Z,9.46
2022-11-24T14:40:01.775Z,9.37
2022-11-24T14:45:01.680Z,9.53
2022-11-24T14:50:01.889Z,9.45
2022-11-24T14:55:21.427Z,9.54
2022-11-24T15:00:02.053Z,9.42
2022-11-24T15:05:03.744Z,9.27
2022-11-24T15:10:02.030Z,9.18
2022-11-24T15:15:01.974Z,9.14
2022-11-24T15:20:01.997Z,9.08
2022-11-24T15:25:01.900Z,8.97
2022-11-24T15:30:01.743Z,8.7
2022-11-24T15:35:01.670Z,8.59
2022-11-24T15:40:01.723Z,8.6
2022-11-24T15:45:01.830Z,8.67
2022-11-24T15:50:01.669Z,8.68
2022-11-24T15:55:01.578Z,8.68
2022-11-24T16:00:01.609Z,8.73
2022-11-24T16:05:01.663Z,8.63
2022-11-24T16:10:01.714Z,8.55
2022-11-24T16:15:01.719Z,8.32
2022-11-24T16:20:01.786Z,8.26
2022-11-24T16:25:02.226Z,8.24
2022-11-24T16:30:02.038Z,8.07
2022-11-24T16:35:01.784Z,8.04
2022-11-24T16:40:01.826Z,8.04
2022-11-24T16:45:01.566Z,7.99
2022-11-24T16:50:01.541Z,8.03
2022-11-24T16:55:01.446Z,8.04
2022-11-24T17:00:02.154Z,8.04
2022-11-24T17:05:01.868Z,8.03
2022-11-24T17:10:01.938Z,8.02
2022-11-24T17:15:31.033Z,8.03
2022-11-24T17:20:01.247Z,7.96
2022-11-24T17:25:01.405Z,7.92
2022-11-24T17:30:01.319Z,7.87
2022-11-24T17:35:01.856Z,7.91
2022-11-24T17:40:26.856Z,7.91
2022-11-24T17:45:01.442Z,7.86
2022-11-24T17:50:01.483Z,7.86
2022-11-24T17:55:01.552Z,7.68
2022-11-24T18:00:01.378Z,7.64
2022-11-24T18:05:01.468Z,7.63
2022-11-24T18:10:01.425Z,7.67
2022-11-24T18:15:01.276Z,7.74
2022-11-24T18:20:01.281Z,7.72
2022-11-24T18:25:02.292Z,7.83
2022-11-24T18:30:01.806Z,7.76
2022-11-24T18:35:01.845Z,7.74
2022-11-24T18:40:01.857Z,7.78
2022-11-24T18:45:01.686Z,7.78
2022-11-24T18:50:01.491Z,7.69
2022-11-24T18:55:01.343Z,7.52
2022-11-24T19:00:01.591Z,7.54
2022-11-24T19:05:01.733Z,7.49
2022-11-24T19:10:01.760Z,7.49
2022-11-24T19:15:01.712Z,7.49
2022-11-24T19:20:01.603Z,7.45
2022-11-24T19:25:01.594Z,7.37
2022-11-24T19:30:01.591Z,7.28
2022-11-24T19:35:01.539Z,7.2
2022-11-24T19:40:01.610Z,7.15
2022-11-24T19:45:02.227Z,7.14
2022-11-24T19:50:05.995Z,7.05
2022-11-24T19:55:01.982Z,6.95
2022-11-24T20:00:01.564Z,6.85
2022-11-24T20:05:01.700Z,6.8
2022-11-24T20:10:07.359Z,6.7
2022-11-24T20:15:02.161Z,6.58
2022-11-24T20:20:02.143Z,6.52
2022-11-24T20:25:01.916Z,6.45
2022-11-24T20:30:01.965Z,6.5
2022-11-24T20:35:01.837Z,6.65
2022-11-24T20:40:01.405Z,6.84
2022-11-24T20:45:01.675Z,6.82
2022-11-24T20:50:01.565Z,6.89
2022-11-24T20:55:01.454Z,6.99
2022-11-24T21:00:01.483Z,6.93
2022-11-24T21:05:01.552Z,6.87
2022-11-24T21:10:01.374Z,6.84
2022-11-24T21:15:01.409Z,6.72
2022-11-24T21:20:01.972Z,6.55
2022-11-24T21:25:01.342Z,6.35
2022-11-24T21:30:01.264Z,6.16
2022-11-24T21:35:02.353Z,6.09
2022-11-24T21:40:01.249Z,6.05
2022-11-24T21:45:01.270Z,5.99
2022-11-24T21:50:01.520Z,5.94
2022-11-24T21:55:01.587Z,5.92
2022-11-24T22:00:01.583Z,5.91
2022-11-24T22:05:01.550Z,5.9
2022-11-24T22:10:01.653Z,6.05
2022-11-24T22:15:01.498Z,5.98
2022-11-24T22:20:01.652Z,6.05
2022-11-24T22:25:01.688Z,6.01
2022-11-24T22:30:01.549Z,6.16
2022-11-24T22:35:01.829Z,6.23
2022-11-24T22:40:01.587Z,6.36
2022-11-24T22:45:01.803Z,6.23
2022-11-24T22:50:01.753Z,5.99
2022-11-24T22:55:01.504Z,5.92
2022-11-24T23:00:01.462Z,5.96
2022-11-24T23:05:01.676Z,5.94
2022-11-24T23:10:01.607Z,6.08
2022-11-24T23:15:01.468Z,6.12
2022-11-24T23:20:01.928Z,6.25
2022-11-24T23:25:01.948Z,6.11
2022-11-24T23:30:01.870Z,6.25
2022-11-24T23:35:02.652Z,6.01
2022-11-24T23:40:01.593Z,6.1
2022-11-24T23:45:01.595Z,6.04
2022-11-24T23:50:01.500Z,6.34
2022-11-24T23:55:02.218Z,6.51
